sensor_id;sensor_type;location;lat;lon;timestamp;pressure;altitude;pressure_sealevel;temperature;humidity
73860;BME280;62197;51.632;13.700;2023-05-12T00:02:10;100250.38;;;14.70;61.22
73860;BME280;62197;51.632;13.700;2023-05-12T00:04:35;100246.19;;;14.62;61.68
73860;BME280;62197;51.632;13.700;2023-05-12T00:07:01;100242.28;;;14.53;61.79
73860;BME280;62197;51.632;13.700;2023-05-12T00:09:28;100241.44;;;14.58;61.63
73860;BME280;62197;51.632;13.700;2023-05-12T00:11:53;100242.53;;;14.46;62.06
73860;BME280;62197;51.632;13.700;2023-05-12T00:14:18;100248.88;;;14.42;62.72
73860;BME280;62197;51.632;13.700;2023-05-12T00:16:44;100254.16;;;14.38;63.08
73860;BME280;62197;51.632;13.700;2023-05-12T00:19:11;100253.59;;;14.31;62.93
73860;BME280;62197;51.632;13.700;2023-05-12T00:21:36;100254.91;;;14.24;63.72
73860;BME280;62197;51.632;13.700;2023-05-12T00:24:02;100250.16;;;14.19;63.88
73860;BME280;62197;51.632;13.700;2023-05-12T00:26:27;100255.13;;;14.12;64.23
73860;BME280;62197;51.632;13.700;2023-05-12T00:28:53;100249.88;;;14.11;64.93
73860;BME280;62197;51.632;13.700;2023-05-12T00:31:18;100244.56;;;14.09;64.31
73860;BME280;62197;51.632;13.700;2023-05-12T00:33:43;100240.66;;;14.05;65.53
73860;BME280;62197;51.632;13.700;2023-05-12T00:36:09;100241.19;;;13.97;66.02
73860;BME280;62197;51.632;13.700;2023-05-12T00:38:34;100239.78;;;13.95;65.92
73860;BME280;62197;51.632;13.700;2023-05-12T00:41:01;100246.97;;;13.96;65.53
73860;BME280;62197;51.632;13.700;2023-05-12T00:43:26;100241.97;;;13.88;66.18
73860;BME280;62197;51.632;13.700;2023-05-12T00:45:52;100243.91;;;13.87;66.73
73860;BME280;62197;51.632;13.700;2023-05-12T00:48:17;100246.41;;;13.94;66.34
73860;BME280;62197;51.632;13.700;2023-05-12T00:50:43;100247.72;;;13.76;66.28
73860;BME280;62197;51.632;13.700;2023-05-12T00:53:09;100250.94;;;13.63;67.09
73860;BME280;62197;51.632;13.700;2023-05-12T00:55:34;100257.78;;;13.50;68.13
73860;BME280;62197;51.632;13.700;2023-05-12T00:58:01;100256.34;;;13.43;68.82
73860;BME280;62197;51.632;13.700;2023-05-12T01:00:27;100246.59;;;13.35;68.48
73860;BME280;62197;51.632;13.700;2023-05-12T01:02:53;100247.47;;;13.41;69.36
73860;BME280;62197;51.632;13.700;2023-05-12T01:05:21;100248.81;;;13.38;69.46
73860;BME280;62197;51.632;13.700;2023-05-12T01:07:47;100251.22;;;13.30;69.33
73860;BME280;62197;51.632;13.700;2023-05-12T01:10:17;100240.56;;;13.12;71.17
73860;BME280;62197;51.632;13.700;2023-05-12T01:12:42;100241.16;;;13.19;70.92
73860;BME280;62197;51.632;13.700;2023-05-12T01:15:08;100246.38;;;13.10;70.08
73860;BME280;62197;51.632;13.700;2023-05-12T01:17:34;100246.41;;;13.15;70.11
73860;BME280;62197;51.632;13.700;2023-05-12T01:20:02;100256.38;;;13.16;69.99
73860;BME280;62197;51.632;13.700;2023-05-12T01:22:29;100256.44;;;13.21;70.14
73860;BME280;62197;51.632;13.700;2023-05-12T01:25:03;100247.88;;;13.28;69.45
73860;BME280;62197;51.632;13.700;2023-05-12T01:27:30;100255.03;;;13.19;69.50
73860;BME280;62197;51.632;13.700;2023-05-12T01:29:57;100252.53;;;13.17;69.13
73860;BME280;62197;51.632;13.700;2023-05-12T01:32:23;100258.28;;;13.11;70.10
73860;BME280;62197;51.632;13.700;2023-05-12T01:34:48;100251.59;;;13.07;69.80
73860;BME280;62197;51.632;13.700;2023-05-12T01:37:15;100258.72;;;13.03;70.31
73860;BME280;62197;51.632;13.700;2023-05-12T01:39:40;100265.00;;;12.93;70.48
73860;BME280;62197;51.632;13.700;2023-05-12T01:42:05;100273.00;;;12.90;70.52
73860;BME280;62197;51.632;13.700;2023-05-12T01:44:31;100271.34;;;12.89;71.19
73860;BME280;62197;51.632;13.700;2023-05-12T01:46:56;100264.09;;;12.88;71.96
73860;BME280;62197;51.632;13.700;2023-05-12T01:49:21;100266.06;;;12.87;71.31
73860;BME280;62197;51.632;13.700;2023-05-12T01:51:47;100266.84;;;12.83;71.54
73860;BME280;62197;51.632;13.700;2023-05-12T01:54:12;100273.41;;;12.77;71.47
73860;BME280;62197;51.632;13.700;2023-05-12T01:56:37;100274.03;;;12.84;71.29
73860;BME280;62197;51.632;13.700;2023-05-12T01:59:03;100275.91;;;12.78;71.44
73860;BME280;62197;51.632;13.700;2023-05-12T02:01:28;100273.41;;;12.77;70.61
73860;BME280;62197;51.632;13.700;2023-05-12T02:03:54;100277.38;;;12.86;71.26
73860;BME280;62197;51.632;13.700;2023-05-12T02:06:20;100271.91;;;12.91;71.88
73860;BME280;62197;51.632;13.700;2023-05-12T02:08:46;100274.16;;;12.94;71.66
73860;BME280;62197;51.632;13.700;2023-05-12T02:11:11;100273.94;;;13.00;70.44
73860;BME280;62197;51.632;13.700;2023-05-12T02:13:36;100265.72;;;12.84;70.48
73860;BME280;62197;51.632;13.700;2023-05-12T02:16:02;100275.06;;;12.78;71.59
73860;BME280;62197;51.632;13.700;2023-05-12T02:18:27;100280.13;;;12.81;70.94
73860;BME280;62197;51.632;13.700;2023-05-12T02:20:53;100278.34;;;12.69;70.79
73860;BME280;62197;51.632;13.700;2023-05-12T02:23:18;100278.84;;;12.66;71.17
73860;BME280;62197;51.632;13.700;2023-05-12T02:25:43;100276.66;;;12.68;71.03
73860;BME280;62197;51.632;13.700;2023-05-12T02:28:09;100271.66;;;12.65;71.74
73860;BME280;62197;51.632;13.700;2023-05-12T02:30:36;100287.41;;;12.65;71.00
73860;BME280;62197;51.632;13.700;2023-05-12T02:33:01;100277.59;;;12.79;68.76
73860;BME280;62197;51.632;13.700;2023-05-12T02:35:29;100275.06;;;12.78;70.66
73860;BME280;62197;51.632;13.700;2023-05-12T02:37:55;100280.84;;;12.71;69.18
73860;BME280;62197;51.632;13.700;2023-05-12T02:40:21;100272.78;;;12.69;70.80
73860;BME280;62197;51.632;13.700;2023-05-12T02:42:46;100271.72;;;12.76;70.74
73860;BME280;62197;51.632;13.700;2023-05-12T02:45:11;100262.75;;;12.63;70.07
73860;BME280;62197;51.632;13.700;2023-05-12T02:47:37;100275.38;;;12.54;70.96
73860;BME280;62197;51.632;13.700;2023-05-12T02:50:03;100265.44;;;12.58;68.14
73860;BME280;62197;51.632;13.700;2023-05-12T02:52:28;100270.03;;;12.69;68.75
73860;BME280;62197;51.632;13.700;2023-05-12T02:54:53;100279.94;;;12.65;69.49
73860;BME280;62197;51.632;13.700;2023-05-12T02:57:20;100272.28;;;12.51;69.39
73860;BME280;62197;51.632;13.700;2023-05-12T02:59:45;100279.19;;;12.48;71.06
73860;BME280;62197;51.632;13.700;2023-05-12T03:02:11;100278.03;;;12.44;70.62
73860;BME280;62197;51.632;13.700;2023-05-12T03:04:36;100274.63;;;12.37;71.12
73860;BME280;62197;51.632;13.700;2023-05-12T03:07:02;100277.91;;;12.34;71.23
73860;BME280;62197;51.632;13.700;2023-05-12T03:09:27;100280.28;;;12.26;71.49
73860;BME280;62197;51.632;13.700;2023-05-12T03:11:52;100278.34;;;12.26;72.64
73860;BME280;62197;51.632;13.700;2023-05-12T03:14:18;100271.91;;;12.21;72.22
73860;BME280;62197;51.632;13.700;2023-05-12T03:16:43;100278.16;;;12.11;73.45
73860;BME280;62197;51.632;13.700;2023-05-12T03:19:08;100274.81;;;12.09;72.97
73860;BME280;62197;51.632;13.700;2023-05-12T03:21:34;100288.22;;;12.01;73.45
73860;BME280;62197;51.632;13.700;2023-05-12T03:23:59;100276.84;;;11.97;73.45
73860;BME280;62197;51.632;13.700;2023-05-12T03:26:25;100276.78;;;11.92;73.58
73860;BME280;62197;51.632;13.700;2023-05-12T03:28:50;100278.97;;;11.90;74.29
73860;BME280;62197;51.632;13.700;2023-05-12T03:31:15;100272.84;;;11.88;73.97
73860;BME280;62197;51.632;13.700;2023-05-12T03:33:41;100280.63;;;11.91;75.81
73860;BME280;62197;51.632;13.700;2023-05-12T03:36:06;100282.66;;;11.96;75.24
73860;BME280;62197;51.632;13.700;2023-05-12T03:38:31;100286.91;;;12.03;74.69
73860;BME280;62197;51.632;13.700;2023-05-12T03:41:06;100284.13;;;12.03;74.50
73860;BME280;62197;51.632;13.700;2023-05-12T03:43:31;100280.50;;;12.19;73.19
73860;BME280;62197;51.632;13.700;2023-05-12T03:45:57;100285.91;;;12.31;72.71
73860;BME280;62197;51.632;13.700;2023-05-12T03:48:22;100285.06;;;12.30;72.24
73860;BME280;62197;51.632;13.700;2023-05-12T03:50:47;100280.00;;;12.27;72.36
73860;BME280;62197;51.632;13.700;2023-05-12T03:53:13;100278.50;;;12.36;71.37
73860;BME280;62197;51.632;13.700;2023-05-12T03:55:39;100286.34;;;12.44;72.49
73860;BME280;62197;51.632;13.700;2023-05-12T03:58:05;100288.13;;;12.55;71.52
73860;BME280;62197;51.632;13.700;2023-05-12T04:00:30;100287.41;;;12.65;70.52
73860;BME280;62197;51.632;13.700;2023-05-12T04:02:57;100286.09;;;12.73;70.57
73860;BME280;62197;51.632;13.700;2023-05-12T04:05:22;100288.34;;;12.76;70.44
73860;BME280;62197;51.632;13.700;2023-05-12T04:07:47;100281.16;;;12.75;70.05
73860;BME280;62197;51.632;13.700;2023-05-12T04:10:13;100286.81;;;12.85;71.28
73860;BME280;62197;51.632;13.700;2023-05-12T04:12:38;100294.16;;;13.01;69.90
73860;BME280;62197;51.632;13.700;2023-05-12T04:15:04;100299.22;;;13.04;69.69
73860;BME280;62197;51.632;13.700;2023-05-12T04:17:29;100293.81;;;13.19;67.59
73860;BME280;62197;51.632;13.700;2023-05-12T04:19:55;100293.31;;;13.22;67.68
73860;BME280;62197;51.632;13.700;2023-05-12T04:22:20;100301.69;;;13.32;67.13
73860;BME280;62197;51.632;13.700;2023-05-12T04:24:45;100301.00;;;13.46;67.18
73860;BME280;62197;51.632;13.700;2023-05-12T04:27:10;100303.59;;;13.58;65.62
73860;BME280;62197;51.632;13.700;2023-05-12T04:29:36;100315.19;;;13.55;64.45
73860;BME280;62197;51.632;13.700;2023-05-12T04:32:01;100306.06;;;13.54;64.50
73860;BME280;62197;51.632;13.700;2023-05-12T04:34:26;100311.56;;;13.49;64.60
73860;BME280;62197;51.632;13.700;2023-05-12T04:36:52;100312.41;;;13.50;65.43
73860;BME280;62197;51.632;13.700;2023-05-12T04:39:17;100314.91;;;13.51;63.67
73860;BME280;62197;51.632;13.700;2023-05-12T04:41:42;100318.22;;;13.48;64.08
73860;BME280;62197;51.632;13.700;2023-05-12T04:44:08;100318.81;;;13.55;63.36
73860;BME280;62197;51.632;13.700;2023-05-12T04:46:33;100317.16;;;13.54;62.91
73860;BME280;62197;51.632;13.700;2023-05-12T04:48:58;100316.91;;;13.61;63.12
73860;BME280;62197;51.632;13.700;2023-05-12T04:51:24;100313.34;;;13.61;63.53
73860;BME280;62197;51.632;13.700;2023-05-12T04:53:49;100320.81;;;13.60;64.04
73860;BME280;62197;51.632;13.700;2023-05-12T04:56:14;100307.72;;;13.55;66.21
73860;BME280;62197;51.632;13.700;2023-05-12T04:58:40;100325.69;;;13.48;66.46
73860;BME280;62197;51.632;13.700;2023-05-12T05:01:05;100329.59;;;13.52;66.33
73860;BME280;62197;51.632;13.700;2023-05-12T05:03:30;100319.94;;;13.54;65.11
73860;BME280;62197;51.632;13.700;2023-05-12T05:05:56;100324.72;;;13.64;64.25
73860;BME280;62197;51.632;13.700;2023-05-12T05:08:21;100325.78;;;13.58;64.00
73860;BME280;62197;51.632;13.700;2023-05-12T05:10:47;100334.53;;;13.45;64.79
73860;BME280;62197;51.632;13.700;2023-05-12T05:13:12;100327.03;;;13.45;64.07
73860;BME280;62197;51.632;13.700;2023-05-12T05:15:37;100335.28;;;13.67;63.31
73860;BME280;62197;51.632;13.700;2023-05-12T05:18:03;100337.28;;;13.77;64.76
73860;BME280;62197;51.632;13.700;2023-05-12T05:20:29;100340.72;;;13.89;63.56
73860;BME280;62197;51.632;13.700;2023-05-12T05:22:56;100332.75;;;13.97;63.49
73860;BME280;62197;51.632;13.700;2023-05-12T05:25:22;100340.03;;;14.13;61.26
73860;BME280;62197;51.632;13.700;2023-05-12T05:27:47;100338.13;;;14.19;61.44
73860;BME280;62197;51.632;13.700;2023-05-12T05:30:13;100340.69;;;14.25;60.99
73860;BME280;62197;51.632;13.700;2023-05-12T05:32:38;100341.53;;;14.26;60.55
73860;BME280;62197;51.632;13.700;2023-05-12T05:35:04;100343.56;;;14.35;60.42
73860;BME280;62197;51.632;13.700;2023-05-12T05:37:30;100340.78;;;14.40;59.96
73860;BME280;62197;51.632;13.700;2023-05-12T05:39:55;100349.72;;;14.48;59.41
73860;BME280;62197;51.632;13.700;2023-05-12T05:42:21;100341.41;;;14.48;59.94
73860;BME280;62197;51.632;13.700;2023-05-12T05:44:46;100346.97;;;14.48;59.56
73860;BME280;62197;51.632;13.700;2023-05-12T05:47:11;100340.63;;;14.62;59.80
73860;BME280;62197;51.632;13.700;2023-05-12T05:49:36;100348.22;;;14.82;59.64
73860;BME280;62197;51.632;13.700;2023-05-12T05:52:02;100353.28;;;15.10;60.13
73860;BME280;62197;51.632;13.700;2023-05-12T05:54:27;100356.09;;;15.15;57.70
73860;BME280;62197;51.632;13.700;2023-05-12T05:56:52;100358.59;;;15.11;57.51
73860;BME280;62197;51.632;13.700;2023-05-12T05:59:18;100355.56;;;15.23;56.20
73860;BME280;62197;51.632;13.700;2023-05-12T06:01:43;100365.59;;;15.29;56.57
73860;BME280;62197;51.632;13.700;2023-05-12T06:04:09;100354.47;;;15.29;56.68
73860;BME280;62197;51.632;13.700;2023-05-12T06:06:35;100358.06;;;15.24;56.94
73860;BME280;62197;51.632;13.700;2023-05-12T06:09:00;100357.81;;;15.41;56.77
73860;BME280;62197;51.632;13.700;2023-05-12T06:11:25;100358.44;;;15.48;57.10
73860;BME280;62197;51.632;13.700;2023-05-12T06:13:51;100358.44;;;15.63;56.73
73860;BME280;62197;51.632;13.700;2023-05-12T06:16:16;100357.88;;;15.46;55.63
73860;BME280;62197;51.632;13.700;2023-05-12T06:18:42;100363.91;;;15.28;56.79
73860;BME280;62197;51.632;13.700;2023-05-12T06:21:07;100356.19;;;15.50;57.16
73860;BME280;62197;51.632;13.700;2023-05-12T06:23:33;100369.56;;;15.68;56.07
73860;BME280;62197;51.632;13.700;2023-05-12T06:25:59;100369.03;;;15.81;54.57
73860;BME280;62197;51.632;13.700;2023-05-12T06:28:24;100378.47;;;15.90;54.26
73860;BME280;62197;51.632;13.700;2023-05-12T06:30:50;100377.91;;;15.93;53.76
73860;BME280;62197;51.632;13.700;2023-05-12T06:33:15;100372.88;;;16.10;53.62
73860;BME280;62197;51.632;13.700;2023-05-12T06:35:40;100381.50;;;16.09;53.05
73860;BME280;62197;51.632;13.700;2023-05-12T06:38:06;100378.69;;;16.24;53.38
73860;BME280;62197;51.632;13.700;2023-05-12T06:40:31;100380.06;;;16.42;53.29
73860;BME280;62197;51.632;13.700;2023-05-12T06:42:56;100374.53;;;16.32;51.98
73860;BME280;62197;51.632;13.700;2023-05-12T06:45:22;100371.16;;;16.60;52.49
73860;BME280;62197;51.632;13.700;2023-05-12T06:47:47;100367.16;;;16.81;51.30
73860;BME280;62197;51.632;13.700;2023-05-12T06:50:13;100369.38;;;16.89;51.09
73860;BME280;62197;51.632;13.700;2023-05-12T06:52:39;100375.22;;;16.82;50.24
73860;BME280;62197;51.632;13.700;2023-05-12T06:55:05;100374.66;;;16.90;50.26
73860;BME280;62197;51.632;13.700;2023-05-12T06:57:31;100357.63;;;16.97;48.81
73860;BME280;62197;51.632;13.700;2023-05-12T06:59:56;100377.59;;;17.14;48.64
73860;BME280;62197;51.632;13.700;2023-05-12T07:02:21;100361.47;;;17.06;48.62
73860;BME280;62197;51.632;13.700;2023-05-12T07:04:47;100366.50;;;17.04;48.01
73860;BME280;62197;51.632;13.700;2023-05-12T07:07:12;100374.78;;;17.19;48.30
73860;BME280;62197;51.632;13.700;2023-05-12T07:09:37;100370.72;;;17.50;48.47
73860;BME280;62197;51.632;13.700;2023-05-12T07:12:05;100369.41;;;17.33;47.02
73860;BME280;62197;51.632;13.700;2023-05-12T07:14:30;100374.00;;;17.62;47.93
73860;BME280;62197;51.632;13.700;2023-05-12T07:16:56;100366.09;;;17.69;46.73
73860;BME280;62197;51.632;13.700;2023-05-12T07:19:21;100362.50;;;17.69;45.26
73860;BME280;62197;51.632;13.700;2023-05-12T07:21:46;100366.00;;;17.84;46.31
73860;BME280;62197;51.632;13.700;2023-05-12T07:24:12;100367.13;;;17.83;45.62
73860;BME280;62197;51.632;13.700;2023-05-12T07:26:38;100372.13;;;17.86;45.70
73860;BME280;62197;51.632;13.700;2023-05-12T07:29:03;100375.66;;;17.97;44.86
73860;BME280;62197;51.632;13.700;2023-05-12T07:31:29;100368.59;;;18.10;44.47
73860;BME280;62197;51.632;13.700;2023-05-12T07:33:55;100373.94;;;18.30;44.90
73860;BME280;62197;51.632;13.700;2023-05-12T07:36:20;100365.88;;;18.28;44.97
73860;BME280;62197;51.632;13.700;2023-05-12T07:38:46;100365.03;;;18.28;45.58
73860;BME280;62197;51.632;13.700;2023-05-12T07:41:11;100373.94;;;18.30;44.33
73860;BME280;62197;51.632;13.700;2023-05-12T07:43:36;100354.69;;;18.28;44.67
73860;BME280;62197;51.632;13.700;2023-05-12T07:46:02;100386.38;;;18.47;45.74
73860;BME280;62197;51.632;13.700;2023-05-12T07:48:27;100378.38;;;18.36;44.33
73860;BME280;62197;51.632;13.700;2023-05-12T07:50:53;100381.41;;;18.39;44.42
73860;BME280;62197;51.632;13.700;2023-05-12T07:53:18;100370.34;;;18.58;45.36
73860;BME280;62197;51.632;13.700;2023-05-12T07:55:44;100377.06;;;18.80;45.28
73860;BME280;62197;51.632;13.700;2023-05-12T07:58:09;100376.75;;;18.82;45.04
73860;BME280;62197;51.632;13.700;2023-05-12T08:00:35;100367.72;;;18.90;42.94
73860;BME280;62197;51.632;13.700;2023-05-12T08:03:01;100364.91;;;18.90;43.98
73860;BME280;62197;51.632;13.700;2023-05-12T08:05:26;100362.53;;;19.02;43.00
73860;BME280;62197;51.632;13.700;2023-05-12T08:07:51;100366.41;;;19.06;43.20
73860;BME280;62197;51.632;13.700;2023-05-12T08:10:17;100369.09;;;19.35;43.72
73860;BME280;62197;51.632;13.700;2023-05-12T08:12:43;100358.13;;;19.38;42.59
73860;BME280;62197;51.632;13.700;2023-05-12T08:15:09;100363.66;;;19.62;44.02
73860;BME280;62197;51.632;13.700;2023-05-12T08:17:34;100367.81;;;19.46;42.26
73860;BME280;62197;51.632;13.700;2023-05-12T08:20:00;100363.34;;;19.63;43.05
73860;BME280;62197;51.632;13.700;2023-05-12T08:22:25;100369.31;;;19.75;42.56
73860;BME280;62197;51.632;13.700;2023-05-12T08:24:50;100362.50;;;19.63;43.68
73860;BME280;62197;51.632;13.700;2023-05-12T08:27:17;100373.31;;;19.88;41.99
73860;BME280;62197;51.632;13.700;2023-05-12T08:29:42;100359.38;;;19.83;41.68
73860;BME280;62197;51.632;13.700;2023-05-12T08:32:07;100364.34;;;20.05;41.66
73860;BME280;62197;51.632;13.700;2023-05-12T08:34:33;100370.38;;;20.12;42.35
73860;BME280;62197;51.632;13.700;2023-05-12T08:36:58;100377.72;;;20.08;41.35
73860;BME280;62197;51.632;13.700;2023-05-12T08:39:23;100373.88;;;20.22;41.79
73860;BME280;62197;51.632;13.700;2023-05-12T08:44:37;100371.69;;;20.19;40.49
73860;BME280;62197;51.632;13.700;2023-05-12T08:47:04;100377.00;;;20.34;39.98
73860;BME280;62197;51.632;13.700;2023-05-12T08:49:31;100357.13;;;20.49;40.61
73860;BME280;62197;51.632;13.700;2023-05-12T08:51:58;100366.88;;;20.65;40.35
73860;BME280;62197;51.632;13.700;2023-05-12T08:54:26;100373.13;;;20.76;41.53
73860;BME280;62197;51.632;13.700;2023-05-12T08:56:53;100371.88;;;20.96;40.00
73860;BME280;62197;51.632;13.700;2023-05-12T08:59:18;100376.44;;;20.78;39.59
73860;BME280;62197;51.632;13.700;2023-05-12T09:01:44;100376.97;;;20.80;39.20
73860;BME280;62197;51.632;13.700;2023-05-12T09:04:11;100374.88;;;20.72;39.73
73860;BME280;62197;51.632;13.700;2023-05-12T09:06:37;100382.91;;;20.92;39.48
73860;BME280;62197;51.632;13.700;2023-05-12T09:09:03;100378.53;;;21.00;38.50
73860;BME280;62197;51.632;13.700;2023-05-12T09:11:28;100377.06;;;21.16;39.57
73860;BME280;62197;51.632;13.700;2023-05-12T09:16:22;100376.28;;;21.15;39.48
73860;BME280;62197;51.632;13.700;2023-05-12T09:18:54;100385.81;;;21.14;39.33
73860;BME280;62197;51.632;13.700;2023-05-12T09:21:20;100367.91;;;20.97;38.92
73860;BME280;62197;51.632;13.700;2023-05-12T09:23:56;100368.75;;;20.84;39.09
73860;BME280;62197;51.632;13.700;2023-05-12T09:26:22;100379.28;;;21.05;40.13
73860;BME280;62197;51.632;13.700;2023-05-12T09:28:48;100370.22;;;21.08;39.66
73860;BME280;62197;51.632;13.700;2023-05-12T09:31:15;100382.44;;;21.39;38.65
73860;BME280;62197;51.632;13.700;2023-05-12T09:33:41;100382.94;;;21.55;37.93
73860;BME280;62197;51.632;13.700;2023-05-12T09:36:06;100377.03;;;21.43;37.77
73860;BME280;62197;51.632;13.700;2023-05-12T09:38:31;100372.47;;;21.33;37.92
73860;BME280;62197;51.632;13.700;2023-05-12T09:40:57;100373.31;;;21.34;36.97
73860;BME280;62197;51.632;13.700;2023-05-12T09:43:22;100375.16;;;21.52;37.74
73860;BME280;62197;51.632;13.700;2023-05-12T09:45:47;100365.16;;;21.60;36.94
73860;BME280;62197;51.632;13.700;2023-05-12T09:48:14;100361.63;;;21.54;37.45
73860;BME280;62197;51.632;13.700;2023-05-12T09:50:48;100373.72;;;21.77;37.12
73860;BME280;62197;51.632;13.700;2023-05-12T09:53:15;100377.03;;;21.79;36.92
73860;BME280;62197;51.632;13.700;2023-05-12T09:55:42;100370.31;;;21.66;36.78
73860;BME280;62197;51.632;13.700;2023-05-12T09:58:09;100369.88;;;21.73;36.74
73860;BME280;62197;51.632;13.700;2023-05-12T10:00:36;100368.47;;;21.12;37.22
73860;BME280;62197;51.632;13.700;2023-05-12T10:03:13;100364.69;;;21.66;37.41
73860;BME280;62197;51.632;13.700;2023-05-12T10:05:48;100367.75;;;21.92;36.84
73860;BME280;62197;51.632;13.700;2023-05-12T10:08:19;100361.88;;;22.02;36.43
73860;BME280;62197;51.632;13.700;2023-05-12T10:10:47;100360.06;;;21.84;37.58
73860;BME280;62197;51.632;13.700;2023-05-12T10:13:14;100360.22;;;22.01;36.91
73860;BME280;62197;51.632;13.700;2023-05-12T10:15:41;100354.09;;;21.99;36.45
73860;BME280;62197;51.632;13.700;2023-05-12T10:18:07;100350.06;;;22.13;35.14
73860;BME280;62197;51.632;13.700;2023-05-12T10:20:34;100351.19;;;22.34;35.43
73860;BME280;62197;51.632;13.700;2023-05-12T10:22:59;100342.66;;;22.48;35.09
73860;BME280;62197;51.632;13.700;2023-05-12T10:25:27;100350.44;;;22.51;34.45
73860;BME280;62197;51.632;13.700;2023-05-12T10:27:54;100350.22;;;22.39;33.52
73860;BME280;62197;51.632;13.700;2023-05-12T10:30:20;100354.56;;;22.76;33.89
73860;BME280;62197;51.632;13.700;2023-05-12T10:32:46;100348.44;;;22.82;33.63
73860;BME280;62197;51.632;13.700;2023-05-12T10:35:11;100336.00;;;22.66;34.00
73860;BME280;62197;51.632;13.700;2023-05-12T10:37:38;100340.72;;;22.57;34.29
73860;BME280;62197;51.632;13.700;2023-05-12T10:40:04;100348.13;;;22.53;33.14
73860;BME280;62197;51.632;13.700;2023-05-12T10:42:40;100341.47;;;22.71;33.33
73860;BME280;62197;51.632;13.700;2023-05-12T10:45:17;100340.59;;;23.01;32.58
73860;BME280;62197;51.632;13.700;2023-05-12T10:47:43;100338.94;;;23.09;33.63
73860;BME280;62197;51.632;13.700;2023-05-12T10:50:09;100343.00;;;23.34;32.95
73860;BME280;62197;51.632;13.700;2023-05-12T10:52:40;100336.22;;;23.60;32.84
73860;BME280;62197;51.632;13.700;2023-05-12T10:55:16;100343.84;;;23.77;31.79
73860;BME280;62197;51.632;13.700;2023-05-12T10:57:48;100357.78;;;23.82;30.92
73860;BME280;62197;51.632;13.700;2023-05-12T11:00:14;100336.88;;;24.17;30.94
73860;BME280;62197;51.632;13.700;2023-05-12T11:02:48;100339.78;;;24.92;28.15
73860;BME280;62197;51.632;13.700;2023-05-12T11:05:14;100329.78;;;24.49;28.92
73860;BME280;62197;51.632;13.700;2023-05-12T11:07:48;100342.25;;;25.93;27.82
73860;BME280;62197;51.632;13.700;2023-05-12T11:10:14;100344.09;;;26.10;27.76
73860;BME280;62197;51.632;13.700;2023-05-12T11:12:42;100349.44;;;26.56;27.02
73860;BME280;62197;51.632;13.700;2023-05-12T11:15:08;100342.75;;;26.28;26.79
73860;BME280;62197;51.632;13.700;2023-05-12T11:17:37;100327.31;;;25.23;27.96
73860;BME280;62197;51.632;13.700;2023-05-12T11:20:03;100323.25;;;24.19;27.84
73860;BME280;62197;51.632;13.700;2023-05-12T11:22:29;100328.13;;;24.56;29.62
73860;BME280;62197;51.632;13.700;2023-05-12T11:24:54;100335.84;;;26.38;26.78
73860;BME280;62197;51.632;13.700;2023-05-12T11:27:21;100324.03;;;27.41;26.28
73860;BME280;62197;51.632;13.700;2023-05-12T11:29:58;100334.19;;;28.37;24.25
73860;BME280;62197;51.632;13.700;2023-05-12T11:32:23;100340.19;;;28.20;24.37
73860;BME280;62197;51.632;13.700;2023-05-12T11:34:49;100341.97;;;27.97;24.84
73860;BME280;62197;51.632;13.700;2023-05-12T11:37:14;100345.25;;;28.85;21.62
73860;BME280;62197;51.632;13.700;2023-05-12T11:39:40;100331.88;;;28.70;22.60
73860;BME280;62197;51.632;13.700;2023-05-12T11:42:06;100331.19;;;28.02;23.14
73860;BME280;62197;51.632;13.700;2023-05-12T11:44:34;100342.16;;;29.56;23.19
73860;BME280;62197;51.632;13.700;2023-05-12T11:47:01;100340.84;;;29.34;23.33
73860;BME280;62197;51.632;13.700;2023-05-12T11:49:28;100336.78;;;26.54;25.75
73860;BME280;62197;51.632;13.700;2023-05-12T11:51:56;100342.06;;;28.00;24.69
73860;BME280;62197;51.632;13.700;2023-05-12T11:54:22;100340.25;;;29.45;23.58
73860;BME280;62197;51.632;13.700;2023-05-12T11:56:53;100352.63;;;29.87;22.77
73860;BME280;62197;51.632;13.700;2023-05-12T11:59:32;100336.19;;;26.48;24.81
73860;BME280;62197;51.632;13.700;2023-05-12T12:01:59;100337.34;;;27.04;23.92
73860;BME280;62197;51.632;13.700;2023-05-12T12:04:33;100324.59;;;27.34;23.28
73860;BME280;62197;51.632;13.700;2023-05-12T12:06:58;100340.56;;;28.62;24.01
73860;BME280;62197;51.632;13.700;2023-05-12T12:09:30;100342.81;;;30.22;22.44
73860;BME280;62197;51.632;13.700;2023-05-12T12:11:56;100351.75;;;30.63;20.83
73860;BME280;62197;51.632;13.700;2023-05-12T12:14:21;100354.72;;;30.47;22.16
73860;BME280;62197;51.632;13.700;2023-05-12T12:16:47;100347.19;;;29.63;23.10
73860;BME280;62197;51.632;13.700;2023-05-12T12:19:12;100351.81;;;31.34;20.91
73860;BME280;62197;51.632;13.700;2023-05-12T12:21:37;100355.78;;;29.31;22.88
73860;BME280;62197;51.632;13.700;2023-05-12T12:24:03;100357.19;;;27.92;24.42
73860;BME280;62197;51.632;13.700;2023-05-12T12:26:29;100357.63;;;26.82;26.43
73860;BME280;62197;51.632;13.700;2023-05-12T12:28:54;100359.81;;;26.20;27.50
73860;BME280;62197;51.632;13.700;2023-05-12T12:31:20;100355.72;;;28.53;24.23
73860;BME280;62197;51.632;13.700;2023-05-12T12:33:45;100349.28;;;28.84;23.78
73860;BME280;62197;51.632;13.700;2023-05-12T12:36:11;100357.13;;;28.16;24.30
73860;BME280;62197;51.632;13.700;2023-05-12T12:38:36;100355.25;;;26.27;28.03
73860;BME280;62197;51.632;13.700;2023-05-12T12:41:02;100348.72;;;28.63;24.18